createdAt,value
2023-07-01T00:02:15.272Z,0.82
2023-07-01T00:05:01.031Z,0.70
2023-07-01T00:07:47.370Z,0.75
2023-07-01T00:10:32.668Z,0.90
2023-07-01T00:13:18.070Z,0.85
2023-07-01T00:16:05.327Z,0.75
2023-07-01T00:18:51.057Z,0.60
2023-07-01T00:21:36.431Z,1.33
2023-07-01T00:24:21.801Z,0.80
2023-07-01T00:27:07.363Z,0.80
2023-07-01T00:29:53.020Z,0.90
2023-07-01T00:32:38.701Z,1.00
2023-07-01T00:35:24.138Z,0.95
2023-07-01T00:38:10.039Z,0.80
2023-07-01T00:40:55.322Z,1.30
2023-07-01T00:43:41.963Z,0.82
2023-07-01T00:46:27.708Z,0.80
2023-07-01T00:49:14.528Z,1.13
2023-07-01T00:52:01.190Z,0.88
2023-07-01T00:54:46.552Z,0.80
2023-07-01T00:57:33.138Z,0.95
2023-07-01T01:00:19.708Z,1.00
2023-07-01T01:03:16.245Z,0.90
2023-07-01T01:06:34.881Z,1.00
2023-07-01T01:09:31.098Z,0.82
2023-07-01T01:12:19.666Z,0.90
2023-07-01T01:15:05.757Z,1.00
2023-07-01T01:17:53.663Z,0.75
2023-07-01T01:20:41.125Z,1.13
2023-07-01T01:23:28.575Z,1.00
2023-07-01T01:26:19.898Z,0.60
2023-07-01T01:29:07.593Z,0.43
2023-07-01T01:31:53.021Z,0.50
2023-07-01T01:34:38.480Z,0.55
2023-07-01T01:37:53.380Z,0.75
2023-07-01T01:40:45.191Z,0.35
2023-07-01T01:43:38.884Z,0.70
2023-07-01T01:46:26.415Z,0.40
2023-07-01T01:49:14.144Z,0.38
2023-07-01T01:52:01.497Z,0.30
2023-07-01T01:54:48.975Z,0.28
2023-07-01T01:57:35.410Z,0.50
2023-07-01T02:00:21.766Z,0.20
2023-07-01T02:03:07.520Z,0.43
2023-07-01T02:05:53.217Z,0.40
2023-07-01T02:08:41.134Z,0.30
2023-07-01T02:11:26.459Z,0.20
2023-07-01T02:14:11.898Z,0.28
2023-07-01T02:16:57.739Z,0.20
2023-07-01T02:19:43.697Z,0.20
2023-07-01T02:22:29.011Z,0.30
2023-07-01T02:25:14.298Z,0.22
2023-07-01T02:27:59.750Z,0.30
2023-07-01T02:30:45.548Z,0.32
2023-07-01T02:33:31.573Z,0.50
2023-07-01T02:36:16.911Z,0.28
2023-07-01T02:39:02.336Z,0.47
2023-07-01T02:41:48.458Z,0.40
2023-07-01T02:44:34.010Z,0.40
2023-07-01T02:47:19.687Z,0.50
2023-07-01T02:50:05.721Z,0.50
2023-07-01T02:52:51.783Z,0.40
2023-07-01T02:55:37.563Z,0.28
2023-07-01T02:58:23.605Z,0.35
2023-07-01T03:01:09.276Z,0.68
2023-07-01T03:03:56.668Z,0.45
2023-07-01T03:06:43.611Z,0.50
2023-07-01T03:09:29.263Z,0.40
2023-07-01T03:12:14.788Z,0.80
2023-07-01T03:15:00.232Z,0.50
2023-07-01T03:17:45.486Z,0.50
2023-07-01T03:20:30.739Z,0.52
2023-07-01T03:23:16.272Z,0.80
2023-07-01T03:26:01.529Z,0.40
2023-07-01T03:28:46.818Z,0.40
2023-07-01T03:31:34.396Z,0.80
2023-07-01T03:34:23.285Z,0.85
2023-07-01T03:37:08.686Z,0.40
2023-07-01T03:39:54.164Z,0.47
2023-07-01T03:42:43.301Z,0.50
2023-07-01T03:45:28.732Z,0.68
2023-07-01T03:48:14.321Z,0.73
2023-07-01T03:50:59.408Z,0.73
2023-07-01T03:53:44.877Z,0.90
2023-07-01T03:56:30.474Z,0.77
2023-07-01T03:59:16.077Z,0.60
2023-07-01T04:02:01.979Z,0.50
2023-07-01T04:04:47.401Z,0.40
2023-07-01T04:07:32.760Z,0.50
2023-07-01T04:10:18.140Z,0.77
2023-07-01T04:13:05.752Z,0.70
2023-07-01T04:15:51.713Z,0.25
2023-07-01T04:18:37.236Z,0.50
2023-07-01T04:21:22.847Z,0.50
2023-07-01T04:24:08.896Z,0.68
2023-07-01T04:26:54.218Z,0.77
2023-07-01T04:29:39.566Z,0.60
2023-07-01T04:32:25.139Z,0.70
2023-07-01T04:35:11.259Z,0.47
2023-07-01T04:37:56.877Z,0.15
2023-07-01T04:40:42.200Z,0.60
2023-07-01T04:43:27.617Z,0.30
2023-07-01T04:46:12.827Z,0.60
2023-07-01T04:48:58.420Z,0.55
2023-07-01T04:51:44.234Z,0.60
2023-07-01T04:54:29.657Z,0.65
2023-07-01T04:57:15.191Z,0.40
2023-07-01T05:00:00.792Z,0.30
2023-07-01T05:02:46.377Z,0.50
2023-07-01T05:05:32.391Z,0.43
2023-07-01T05:08:17.861Z,0.40
2023-07-01T05:11:04.536Z,0.50
2023-07-01T05:13:49.867Z,0.45
2023-07-01T05:16:35.336Z,0.50
2023-07-01T05:19:20.742Z,0.50
2023-07-01T05:22:06.040Z,0.47
2023-07-01T05:24:51.529Z,0.40
2023-07-01T05:27:36.932Z,0.38
2023-07-01T05:30:22.288Z,0.60
2023-07-01T05:33:08.109Z,0.55
2023-07-01T05:35:53.642Z,0.40
2023-07-01T05:38:41.290Z,0.63
2023-07-01T05:41:26.725Z,0.25
2023-07-01T05:44:12.344Z,0.40
2023-07-01T05:46:58.270Z,0.50
2023-07-01T05:49:43.652Z,0.60
2023-07-01T05:52:29.083Z,0.30
2023-07-01T05:55:14.519Z,0.20
2023-07-01T05:57:59.919Z,0.20
2023-07-01T06:00:46.823Z,0.30
2023-07-01T06:03:32.476Z,0.40
2023-07-01T06:06:18.021Z,0.50
2023-07-01T06:09:03.800Z,0.52
2023-07-01T06:11:49.351Z,0.45
2023-07-01T06:14:34.801Z,0.63
2023-07-01T06:17:20.205Z,0.65
2023-07-01T06:20:06.606Z,0.50
2023-07-01T06:22:52.498Z,0.40
2023-07-01T06:25:38.050Z,0.28
2023-07-01T06:28:23.860Z,0.60
2023-07-01T06:31:09.529Z,0.40
2023-07-01T06:33:55.236Z,0.50
2023-07-01T06:36:40.559Z,0.60
2023-07-01T06:39:25.962Z,0.65
2023-07-01T06:42:11.755Z,0.50
2023-07-01T06:44:56.996Z,0.77
2023-07-01T06:47:42.595Z,0.25
2023-07-01T06:50:28.110Z,0.80
2023-07-01T06:53:13.578Z,0.70
2023-07-01T06:55:59.056Z,0.80
2023-07-01T06:58:44.365Z,0.80
2023-07-01T07:01:29.864Z,0.68
2023-07-01T07:04:15.868Z,0.70
2023-07-01T07:07:01.401Z,0.70
2023-07-01T07:09:46.940Z,0.90
2023-07-01T07:12:32.273Z,0.60
2023-07-01T07:15:17.795Z,0.70
2023-07-01T07:18:03.595Z,0.70
2023-07-01T07:20:49.280Z,1.45
2023-07-01T07:23:34.996Z,0.93
2023-07-01T07:26:20.742Z,0.93
2023-07-01T07:29:06.388Z,0.75
2023-07-01T07:31:53.504Z,1.13
2023-07-01T07:34:39.826Z,1.30
2023-07-01T07:37:25.534Z,1.67
2023-07-01T07:40:11.390Z,1.20
2023-07-01T07:42:56.888Z,1.20
2023-07-01T07:45:42.368Z,1.88
2023-07-01T07:48:27.702Z,2.42
2023-07-01T07:51:13.019Z,2.22
2023-07-01T07:53:58.456Z,2.58
2023-07-01T07:56:43.822Z,3.67
2023-07-01T07:59:30.185Z,3.17
2023-07-01T08:02:15.647Z,3.05
2023-07-01T08:05:01.288Z,3.63
2023-07-01T08:07:48.150Z,4.57
2023-07-01T08:10:33.300Z,4.25
2023-07-01T08:13:18.788Z,4.53
2023-07-01T08:16:05.897Z,4.28
2023-07-01T08:18:51.550Z,3.80
2023-07-01T08:21:39.189Z,3.92
2023-07-01T08:24:24.574Z,4.75
2023-07-01T08:27:09.957Z,3.88
2023-07-01T08:29:55.226Z,3.95
2023-07-01T08:32:41.779Z,4.57
2023-07-01T08:35:27.677Z,4.90
2023-07-01T08:38:13.215Z,5.57
2023-07-01T08:41:04.578Z,5.32
2023-07-01T08:43:53.436Z,5.72
2023-07-01T08:46:41.703Z,6.47
2023-07-01T08:49:29.941Z,7.18
2023-07-01T08:52:18.658Z,6.00
2023-07-01T08:55:05.420Z,7.00
2023-07-01T08:57:50.924Z,6.68
2023-07-01T09:00:36.459Z,8.07
2023-07-01T09:03:22.936Z,7.60
2023-07-01T09:06:08.873Z,7.43
2023-07-01T09:08:55.386Z,7.57
2023-07-01T09:11:41.661Z,7.63
2023-07-01T09:14:27.372Z,8.93
2023-07-01T09:17:35.371Z,7.72
2023-07-01T09:20:20.837Z,8.65
2023-07-01T09:23:06.314Z,9.18
2023-07-01T09:25:51.696Z,8.13
2023-07-01T09:28:38.354Z,9.55
2023-07-01T09:31:23.991Z,9.20
2023-07-01T09:34:10.596Z,9.23
2023-07-01T09:36:56.026Z,10.73
2023-07-01T09:39:41.695Z,10.25
2023-07-01T09:42:27.040Z,11.02
2023-07-01T09:45:12.799Z,10.52
2023-07-01T09:47:58.334Z,9.75
2023-07-01T09:50:44.022Z,9.93
2023-07-01T09:53:33.230Z,9.40
2023-07-01T09:56:20.232Z,10.15
2023-07-01T09:59:06.729Z,10.50
2023-07-01T10:01:56.276Z,9.02
2023-07-01T10:04:42.115Z,9.80
2023-07-01T10:07:27.519Z,10.82
2023-07-01T10:10:14.408Z,9.10
2023-07-01T10:13:02.848Z,9.88
2023-07-01T10:15:48.498Z,10.25
2023-07-01T10:18:34.491Z,10.85
2023-07-01T10:21:29.064Z,9.93
2023-07-01T10:24:39.351Z,10.07
2023-07-01T10:27:44.113Z,9.98
2023-07-01T10:30:55.678Z,10.02
2023-07-01T10:33:41.240Z,10.43
2023-07-01T10:36:26.984Z,11.50
2023-07-01T10:39:33.459Z,9.82
2023-07-01T10:42:32.699Z,9.10
2023-07-01T10:45:18.345Z,10.23
2023-07-01T10:48:03.625Z,9.57
2023-07-01T10:51:08.860Z,9.43
2023-07-01T10:54:00.621Z,9.40
2023-07-01T10:57:13.651Z,10.07
2023-07-01T11:00:38.196Z,9.60
2023-07-01T11:03:36.845Z,10.80
2023-07-01T11:06:23.401Z,11.48
2023-07-01T11:09:09.105Z,9.10
2023-07-01T11:11:55.850Z,11.48
2023-07-01T11:14:41.416Z,11.63
2023-07-01T11:17:27.716Z,9.85
2023-07-01T11:20:13.505Z,8.48
2023-07-01T11:22:59.621Z,9.05
2023-07-01T11:25:45.814Z,9.32
2023-07-01T11:28:35.900Z,6.82
2023-07-01T11:31:23.978Z,8.50
2023-07-01T11:34:11.880Z,9.63
2023-07-01T11:36:58.735Z,9.50
2023-07-01T11:39:47.452Z,9.48
2023-07-01T11:42:32.990Z,9.10
2023-07-01T11:45:18.365Z,10.43
2023-07-01T11:48:03.848Z,9.48
2023-07-01T11:50:53.677Z,10.15
2023-07-01T11:53:58.334Z,8.75
2023-07-01T11:56:45.105Z,8.77
2023-07-01T11:59:39.074Z,9.25
2023-07-01T12:02:32.443Z,8.52
2023-07-01T12:05:21.499Z,7.15
2023-07-01T12:08:06.784Z,9.32
2023-07-01T12:10:53.285Z,8.52
2023-07-01T12:13:38.981Z,9.93
2023-07-01T12:16:43.931Z,8.77
2023-07-01T12:19:31.681Z,8.52
2023-07-01T12:22:17.283Z,8.52
2023-07-01T12:25:04.057Z,8.98
2023-07-01T12:27:50.143Z,8.88
2023-07-01T12:30:35.874Z,8.68
2023-07-01T12:33:21.603Z,7.20
2023-07-01T12:36:07.451Z,7.00
2023-07-01T12:38:53.698Z,6.82
2023-07-01T12:41:41.122Z,7.57
2023-07-01T12:44:28.424Z,7.50
2023-07-01T12:47:13.798Z,6.88
2023-07-01T12:49:59.094Z,8.30
2023-07-01T12:52:44.531Z,7.00
2023-07-01T12:55:30.025Z,7.35
2023-07-01T12:58:15.640Z,7.80
2023-07-01T13:01:06.768Z,6.88
2023-07-01T13:03:52.983Z,7.57
2023-07-01T13:06:40.799Z,6.50
2023-07-01T13:09:44.792Z,7.30
2023-07-01T13:12:30.182Z,7.13
2023-07-01T13:15:52.546Z,6.75
2023-07-01T13:21:23.332Z,6.38
2023-07-01T13:24:11.434Z,6.88
2023-07-01T13:27:02.161Z,7.13
2023-07-01T13:29:47.520Z,7.70
2023-07-01T13:32:32.945Z,6.97
2023-07-01T13:35:18.366Z,7.13
2023-07-01T13:38:09.212Z,6.82
2023-07-01T13:40:57.791Z,6.40
2023-07-01T13:43:43.458Z,4.82
2023-07-01T13:46:49.275Z,5.00
2023-07-01T13:49:35.264Z,4.97
2023-07-01T13:52:21.630Z,5.25
2023-07-01T13:55:10.054Z,6.40
2023-07-01T13:57:55.684Z,5.43
2023-07-01T14:00:48.105Z,5.78
2023-07-01T14:03:47.271Z,5.07
2023-07-01T14:06:38.358Z,4.85
2023-07-01T14:09:29.423Z,5.38
2023-07-01T14:12:18.144Z,4.90
2023-07-01T14:15:32.526Z,4.78
2023-07-01T14:18:21.135Z,5.10
2023-07-01T14:21:06.916Z,4.13
2023-07-01T14:23:56.734Z,4.38
2023-07-01T14:26:44.108Z,4.78
2023-07-01T14:29:29.617Z,4.55
2023-07-01T14:32:15.451Z,3.80
2023-07-01T14:35:01.088Z,2.92
2023-07-01T14:37:49.857Z,3.25
2023-07-01T14:40:36.782Z,3.40
2023-07-01T14:43:22.405Z,4.20
2023-07-01T14:46:07.724Z,3.65
2023-07-01T14:48:53.477Z,4.30
2023-07-01T14:51:39.696Z,3.13
2023-07-01T14:54:25.497Z,3.28
2023-07-01T14:57:11.044Z,3.80
2023-07-01T14:59:56.369Z,3.53
2023-07-01T15:02:41.798Z,3.70
2023-07-01T15:05:27.120Z,3.28
2023-07-01T15:08:12.420Z,3.05
2023-07-01T15:10:57.728Z,3.20
2023-07-01T15:13:43.502Z,3.00
2023-07-01T15:16:29.868Z,4.00
2023-07-01T15:19:15.619Z,3.63
2023-07-01T15:22:01.279Z,3.60
2023-07-01T15:24:46.926Z,3.08
2023-07-01T15:27:32.282Z,3.80
2023-07-01T15:30:17.913Z,3.63
2023-07-01T15:33:04.342Z,3.88
2023-07-01T15:35:50.700Z,3.63
2023-07-01T15:38:36.349Z,3.47
2023-07-01T15:41:25.650Z,4.38
2023-07-01T15:44:19.500Z,4.00
2023-07-01T15:47:05.036Z,4.28
2023-07-01T15:49:50.990Z,4.05
2023-07-01T15:52:37.015Z,4.63
2023-07-01T15:55:22.852Z,4.68
2023-07-01T15:58:08.880Z,4.82
2023-07-01T16:00:54.542Z,5.03
2023-07-01T16:03:40.136Z,3.80
2023-07-01T16:06:25.941Z,5.03
2023-07-01T16:09:42.160Z,5.57
2023-07-01T16:12:35.838Z,4.45
2023-07-01T16:15:23.080Z,4.22
2023-07-01T16:18:30.283Z,5.13
2023-07-01T16:21:20.056Z,6.05
2023-07-01T16:24:29.337Z,4.35
2023-07-01T16:27:17.647Z,5.05
2023-07-01T16:30:04.304Z,4.60
2023-07-01T16:32:58.468Z,4.07
2023-07-01T16:35:47.226Z,4.05
2023-07-01T16:38:33.677Z,3.60
2023-07-01T16:41:23.454Z,4.45
2023-07-01T16:44:09.485Z,4.40
2023-07-01T16:46:55.950Z,4.80
2023-07-01T16:49:41.449Z,4.00
2023-07-01T16:52:28.845Z,4.57
2023-07-01T16:55:40.298Z,4.65
2023-07-01T16:58:25.798Z,4.32
2023-07-01T17:01:20.158Z,4.70
2023-07-01T17:04:06.115Z,4.43
2023-07-01T17:06:51.733Z,4.80
2023-07-01T17:09:42.407Z,4.35
2023-07-01T17:12:32.447Z,4.88
2023-07-01T17:15:30.160Z,4.38
2023-07-01T17:18:17.907Z,4.05
2023-07-01T17:21:03.618Z,4.40
2023-07-01T17:23:49.358Z,3.95
2023-07-01T17:26:34.621Z,4.63
2023-07-01T17:29:20.008Z,4.30
2023-07-01T17:32:06.125Z,4.15
2023-07-01T17:35:17.172Z,3.75
2023-07-01T17:38:03.211Z,4.05
2023-07-01T17:40:48.515Z,4.00
2023-07-01T17:43:33.808Z,2.88
2023-07-01T17:46:19.234Z,3.45
2023-07-01T17:49:05.362Z,3.38
2023-07-01T17:51:50.999Z,3.63
2023-07-01T17:54:36.423Z,3.92
2023-07-01T17:57:22.801Z,4.03
2023-07-01T18:00:08.553Z,3.63
2023-07-01T18:05:45.921Z,3.28
2023-07-01T18:08:31.379Z,3.33
2023-07-01T18:11:16.758Z,3.85
2023-07-01T18:14:02.917Z,2.58
2023-07-01T18:16:50.549Z,2.47
2023-07-01T18:19:37.762Z,2.88
2023-07-01T18:22:23.192Z,2.63
2023-07-01T18:25:10.050Z,2.95
2023-07-01T18:27:55.680Z,2.92
2023-07-01T18:30:41.348Z,2.60
2023-07-01T18:33:28.564Z,2.97
2023-07-01T18:36:14.534Z,2.65
2023-07-01T18:39:00.230Z,3.20
2023-07-01T18:41:45.683Z,3.28
2023-07-01T18:44:31.250Z,2.80
2023-07-01T18:47:16.665Z,3.05
2023-07-01T18:50:02.108Z,2.78
2023-07-01T18:52:47.594Z,3.13
2023-07-01T18:55:33.196Z,3.50
2023-07-01T18:58:18.608Z,3.40
2023-07-01T19:01:04.328Z,3.83
2023-07-01T19:03:50.047Z,3.03
2023-07-01T19:06:35.458Z,2.58
2023-07-01T19:09:20.781Z,3.03
2023-07-01T19:12:06.326Z,3.55
2023-07-01T19:14:51.712Z,3.30
2023-07-01T19:17:37.299Z,3.10
2023-07-01T19:20:41.311Z,2.90
2023-07-01T19:23:34.083Z,3.97
2023-07-01T19:26:19.697Z,3.75
2023-07-01T19:29:08.045Z,2.25
2023-07-01T19:31:53.401Z,2.95
2023-07-01T19:34:41.166Z,3.00
2023-07-01T19:37:26.570Z,3.05
2023-07-01T19:40:12.875Z,3.28
2023-07-01T19:42:58.178Z,3.42
2023-07-01T19:45:44.432Z,3.67
2023-07-01T19:48:30.022Z,3.28
2023-07-01T19:51:15.545Z,3.58
2023-07-01T19:54:01.034Z,3.47
2023-07-01T19:56:46.647Z,3.08
2023-07-01T19:59:32.266Z,3.35
2023-07-01T20:02:17.576Z,2.75
2023-07-01T20:05:07.216Z,3.33
2023-07-01T20:07:53.029Z,3.55
2023-07-01T20:10:39.241Z,3.00
2023-07-01T20:13:24.746Z,3.35
2023-07-01T20:16:10.720Z,3.13
2023-07-01T20:18:56.491Z,3.00
2023-07-01T20:21:42.093Z,2.83
2023-07-01T20:24:27.752Z,3.13
2023-07-01T20:27:23.416Z,2.80
2023-07-01T20:30:11.526Z,3.55
2023-07-01T20:32:57.550Z,3.17
2023-07-01T20:35:43.037Z,3.38
2023-07-01T20:38:28.312Z,3.60
2023-07-01T20:41:13.820Z,3.40
2023-07-01T20:43:58.952Z,3.33
2023-07-01T20:46:47.779Z,2.80
2023-07-01T20:49:34.922Z,3.15
2023-07-01T20:52:21.247Z,4.45
2023-07-01T20:55:09.442Z,3.90
2023-07-01T20:57:55.110Z,3.63
2023-07-01T21:00:40.465Z,3.33
2023-07-01T21:03:26.435Z,3.83
2023-07-01T21:06:12.353Z,3.40
2023-07-01T21:08:57.689Z,3.35
2023-07-01T21:11:45.103Z,3.65
2023-07-01T21:14:30.873Z,3.65
2023-07-01T21:17:17.768Z,3.78
2023-07-01T21:20:03.915Z,4.00
2023-07-01T21:22:50.975Z,3.38
2023-07-01T21:25:36.456Z,4.10
2023-07-01T21:28:21.851Z,3.35
2023-07-01T21:31:07.246Z,4.18
2023-07-01T21:33:55.847Z,3.85
2023-07-01T21:36:43.519Z,3.55
2023-07-01T21:39:28.856Z,3.53
2023-07-01T21:42:22.535Z,3.17
2023-07-01T21:45:22.470Z,3.33
2023-07-01T21:48:12.386Z,3.40
2023-07-01T21:51:08.591Z,4.03
2023-07-01T21:53:54.218Z,3.75
2023-07-01T21:56:41.960Z,4.70
2023-07-01T21:59:28.664Z,3.35
2023-07-01T22:02:24.632Z,3.38
2023-07-01T22:05:14.757Z,2.72
2023-07-01T22:08:00.351Z,2.97
2023-07-01T22:10:56.960Z,3.55
2023-07-01T22:13:44.869Z,3.63
2023-07-01T22:16:30.310Z,5.18
2023-07-01T22:19:15.778Z,2.97
2023-07-01T22:22:01.106Z,3.88
2023-07-01T22:24:47.581Z,3.03
2023-07-01T22:27:33.189Z,3.65
2023-07-01T22:30:19.436Z,3.70
2023-07-01T22:33:05.228Z,2.90
2023-07-01T22:35:51.210Z,3.25
2023-07-01T22:38:36.757Z,3.63
2023-07-01T22:41:22.358Z,3.55
2023-07-01T22:44:07.815Z,3.33
2023-07-01T22:46:53.226Z,2.90
2023-07-01T22:49:38.626Z,3.38
2023-07-01T22:52:24.000Z,3.10
2023-07-01T22:55:11.745Z,2.65
2023-07-01T22:57:57.327Z,3.00
2023-07-01T23:00:44.576Z,3.70
2023-07-01T23:03:30.447Z,3.88
2023-07-01T23:06:16.232Z,3.35
2023-07-01T23:09:01.465Z,2.92
2023-07-01T23:11:46.931Z,3.03
2023-07-01T23:14:32.174Z,2.97
2023-07-01T23:17:17.479Z,3.88
2023-07-01T23:20:05.427Z,3.40
2023-07-01T23:22:50.724Z,2.90
2023-07-01T23:25:36.141Z,3.85
2023-07-01T23:28:22.070Z,4.32
2023-07-01T23:31:09.431Z,3.47
2023-07-01T23:33:56.261Z,3.78
2023-07-01T23:36:41.677Z,3.80
2023-07-01T23:39:27.024Z,3.58
2023-07-01T23:42:13.652Z,3.78
2023-07-01T23:44:59.298Z,4.60
2023-07-01T23:47:46.396Z,3.53
2023-07-01T23:50:32.107Z,4.05
2023-07-01T23:53:17.435Z,3.03
2023-07-01T23:56:02.945Z,4.22
2023-07-01T23:58:48.386Z,4.05
